Time;durP1;ratioP1;P1;durP2;ratioP2;P2;SDS_P1;SDS_P2;PMS_P1;PMS_P2;Temp;Humidity;BMP_temperature;BMP_pressure;BME280_temperature;BME280_humidity;BME280_pressure;Samples;Min_cycle;Max_cycle;Signal;HPM_P1;HPM_P2
2022/08/29 00:01:00;;;;;;;19.92;16.48;;;;;;;21.17;69.09;101520.59;4941812;28;120323;-78
2022/08/29 00:03:26;;;;;;;19.23;15.53;;;;;;;21.24;69.26;101539.66;4939730;28;120245;-78
2022/08/29 00:05:52;;;;;;;16.88;14.40;;;;;;;21.23;69.67;101536.06;4947475;28;120414;-79
2022/08/29 00:08:17;;;;;;;18.80;14.95;;;;;;;21.26;69.40;101537.88;4933632;28;119986;-79
2022/08/29 00:10:43;;;;;;;16.75;14.45;;;;;;;21.28;69.77;101549.31;4942531;28;120348;-79
2022/08/29 00:13:10;;;;;;;16.58;14.13;;;;;;;21.27;69.28;101542.19;4929373;28;120692;-79
2022/08/29 00:15:36;;;;;;;15.02;12.40;;;;;;;21.27;68.75;101542.19;4946294;28;122483;-78
2022/08/29 00:18:02;;;;;;;15.00;13.47;;;;;;;21.29;68.77;101547.28;4933278;28;123918;-79
2022/08/29 00:20:31;;;;;;;17.40;13.33;;;;;;;21.27;68.82;101533.81;4931359;28;122110;-79
2022/08/29 00:22:58;;;;;;;14.75;13.25;;;;;;;21.22;68.77;101531.78;4914462;28;121004;-79
2022/08/29 00:25:24;;;;;;;15.33;13.23;;;;;;;21.21;69.04;101535.81;4945862;28;123245;-79
2022/08/29 00:27:50;;;;;;;14.48;12.70;;;;;;;21.24;68.42;101537.63;4931215;28;120391;-79
2022/08/29 00:30:18;;;;;;;15.00;13.05;;;;;;;21.22;68.49;101542.94;4913341;28;120548;-79
2022/08/29 00:32:43;;;;;;;14.40;12.43;;;;;;;21.16;68.12;101528.22;4945705;28;120746;-79
2022/08/29 00:35:20;;;;;;;14.80;12.50;;;;;;;21.16;68.95;101544.94;4930252;28;120193;-79
2022/08/29 00:37:46;;;;;;;16.08;12.70;;;;;;;21.13;68.65;101543.94;4945729;28;121621;-79
2022/08/29 00:40:16;;;;;;;13.63;12.20;;;;;;;21.09;68.43;101545.44;4930161;28;120764;-79
2022/08/29 00:42:43;;;;;;;14.43;12.77;;;;;;;21.09;68.61;101553.81;4918758;28;120979;-79
2022/08/29 00:45:10;;;;;;;15.68;13.20;;;;;;;21.06;69.16;101541.63;4928940;28;120221;-79
2022/08/29 00:47:42;;;;;;;15.93;12.85;;;;;;;21.10;68.85;101556.09;4927764;28;121095;-78
2022/08/29 00:50:14;;;;;;;16.10;13.48;;;;;;;21.11;68.90;101545.72;4929036;28;121341;-79
2022/08/29 00:52:46;;;;;;;16.55;12.85;;;;;;;21.11;68.76;101546.47;4928389;28;120736;-78
2022/08/29 00:55:16;;;;;;;15.25;13.45;;;;;;;21.13;68.67;101548.75;4940899;28;123338;-78
2022/08/29 00:57:45;;;;;;;14.83;12.60;;;;;;;21.10;68.61;101553.31;4940823;28;120880;-78
2022/08/29 01:00:30;;;;;;;14.67;13.07;;;;;;;21.09;68.45;101545.44;4928674;28;120386;-78
2022/08/29 01:02:56;;;;;;;15.07;13.27;;;;;;;21.05;68.67;101536.53;4939329;28;121484;-77
2022/08/29 01:05:22;;;;;;;16.30;13.15;;;;;;;21.01;68.45;101536.03;4942719;28;121378;-78
2022/08/29 01:07:49;;;;;;;17.88;13.65;;;;;;;20.98;68.95;101542.59;4933871;28;122327;-78
2022/08/29 01:12:14;;;;;;;14.70;13.20;;;;;;;20.97;68.61;101547.44;4940902;28;120935;-78
2022/08/29 01:13:02;;;;;;;16.60;13.40;;;;;;;20.96;68.44;101547.94;4947366;28;121784;-78
2022/08/29 01:15:30;;;;;;;15.88;14.18;;;;;;;20.93;68.76;101551.72;4927511;28;121674;-78
2022/08/29 01:17:58;;;;;;;16.25;14.27;;;;;;;20.84;68.88;101550.69;4909643;28;123929;-79
2022/08/29 01:20:38;;;;;;;15.18;13.63;;;;;;;20.90;68.49;101556.28;4926977;28;120597;-78
2022/08/29 01:23:14;;;;;;;20.40;14.27;;;;;;;20.85;68.49;101557.03;4941539;28;121430;-78
2022/08/29 01:25:45;;;;;;;15.90;14.18;;;;;;;20.81;68.80;101560.03;4925894;28;121561;-78
2022/08/29 01:28:17;;;;;;;17.85;14.00;;;;;;;20.84;69.01;101561.84;4941987;28;120004;-78
2022/08/29 01:31:09;;;;;;;18.70;13.95;;;;;;;20.80;69.02;101563.31;4925674;28;123375;-78
2022/08/29 01:33:48;;;;;;;16.55;14.48;;;;;;;20.77;68.97;101567.13;4922357;28;122164;-78
2022/08/29 01:36:19;;;;;;;17.63;14.35;;;;;;;20.72;68.85;101557.47;4924393;28;123612;-81
2022/08/29 01:38:46;;;;;;;15.65;14.05;;;;;;;20.70;68.91;101565.56;4932538;28;121751;-78
2022/08/29 01:41:12;;;;;;;17.73;13.90;;;;;;;20.63;69.13;101566.06;4943514;28;120465;-78
2022/08/29 01:43:45;;;;;;;17.00;13.80;;;;;;;20.64;68.66;101578.72;4943071;28;120991;-78
2022/08/29 01:46:13;;;;;;;15.77;14.00;;;;;;;20.61;69.11;101574.16;4943072;28;122070;-78
2022/08/29 01:48:41;;;;;;;16.05;14.18;;;;;;;20.57;69.03;101579.19;4926423;28;120410;-78
2022/08/29 01:51:07;;;;;;;17.08;14.32;;;;;;;20.57;68.88;101584.75;4926063;28;123384;-78
2022/08/29 01:53:33;;;;;;;16.58;14.48;;;;;;;20.52;68.98;101579.91;4939275;28;120876;-78
2022/08/29 01:56:07;;;;;;;16.90;14.10;;;;;;;20.49;69.15;101573.31;4944181;28;120219;-77
2022/08/29 01:58:32;;;;;;;15.90;13.65;;;;;;;20.44;69.00;101571.28;4925005;28;120934;-78
2022/08/29 02:00:58;;;;;;;15.57;13.90;;;;;;;20.45;69.22;101577.59;4943156;28;120275;-78
2022/08/29 02:03:24;;;;;;;16.40;14.32;;;;;;;20.42;69.05;101578.59;4942281;28;122747;-78
2022/08/29 02:06:11;;;;;;;16.70;14.27;;;;;;;20.45;69.47;101583.19;4936362;28;121417;-78
2022/08/29 02:08:38;;;;;;;18.33;14.63;;;;;;;20.43;69.64;101582.91;4940439;28;120273;-78
2022/08/29 02:11:08;;;;;;;16.33;14.27;;;;;;;20.46;69.68;101584.72;4941274;28;120969;-78
2022/08/29 02:13:50;;;;;;;16.45;13.80;;;;;;;20.47;69.42;101581.41;4941204;28;121632;-78
2022/08/29 02:16:17;;;;;;;15.30;13.30;;;;;;;20.49;69.59;101578.13;4940801;28;120433;-79
2022/08/29 02:18:43;;;;;;;15.10;12.93;;;;;;;20.49;68.88;101572.56;4940736;28;121959;-79
2022/08/29 02:21:14;;;;;;;15.50;12.37;;;;;;;20.50;68.87;101574.84;4947382;28;123075;-79
2022/08/29 02:23:41;;;;;;;13.57;11.60;;;;;;;20.50;68.79;101572.06;4927127;28;121508;-78
2022/08/29 02:26:06;;;;;;;14.15;11.77;;;;;;;20.45;68.72;101572.03;4934148;28;123734;-78
2022/08/29 02:28:34;;;;;;;14.43;11.65;;;;;;;20.47;68.93;101570.28;4929025;28;120452;-78
2022/08/29 02:31:01;;;;;;;13.88;11.65;;;;;;;20.46;68.71;101573.56;4942856;28;121126;-78
2022/08/29 02:33:27;;;;;;;13.40;11.60;;;;;;;20.39;68.67;101568.44;4924757;28;120209;-78
2022/08/29 02:35:53;;;;;;;14.45;11.70;;;;;;;20.42;68.51;101575.81;4941732;28;121481;-78
2022/08/29 02:38:20;;;;;;;14.07;11.87;;;;;;;20.37;68.82;101574.50;4926046;28;120666;-78
2022/08/29 02:40:47;;;;;;;14.18;12.00;;;;;;;20.35;68.79;101579.03;4941776;28;120276;-78
2022/08/29 02:43:15;;;;;;;15.77;11.93;;;;;;;20.33;68.90;101584.31;4920637;28;120609;-79
2022/08/29 02:45:42;;;;;;;15.38;12.52;;;;;;;20.23;68.45;101578.97;4940377;28;122008;-79
2022/08/29 02:48:10;;;;;;;13.90;11.20;;;;;;;20.21;69.01;101581.47;4925714;28;120931;-79
2022/08/29 02:50:42;;;;;;;15.18;12.70;;;;;;;20.21;69.33;101581.47;4920519;28;121333;-78
2022/08/29 02:53:08;;;;;;;13.57;12.18;;;;;;;20.16;69.31;101579.44;4907446;28;122113;-79
2022/08/29 02:55:34;;;;;;;13.77;12.38;;;;;;;20.18;69.25;101587.28;4940177;28;120549;-79
2022/08/29 02:58:00;;;;;;;16.27;12.82;;;;;;;20.17;69.36;101583.72;4940260;28;121334;-78
2022/08/29 03:00:27;;;;;;;15.27;12.20;;;;;;;20.17;69.44;101575.38;4938979;28;120341;-79
2022/08/29 03:02:54;;;;;;;14.70;12.65;;;;;;;20.13;69.08;101577.63;4922379;28;121451;-79
2022/08/29 03:05:33;;;;;;;16.42;12.10;;;;;;;20.17;69.23;101580.94;4927949;28;122263;-79
2022/08/29 03:08:01;;;;;;;16.20;12.10;;;;;;;20.16;69.14;101579.44;4936243;28;120272;-79
2022/08/29 03:10:27;;;;;;;16.47;12.47;;;;;;;20.13;68.96;101572.06;4944725;28;120180;-79
2022/08/29 03:12:53;;;;;;;14.55;11.70;;;;;;;20.14;69.18;101572.81;4926385;28;123004;-79
2022/08/29 03:15:20;;;;;;;14.90;12.25;;;;;;;20.07;69.08;101571.25;4944032;28;119987;-79
2022/08/29 03:17:46;;;;;;;15.88;12.52;;;;;;;20.09;69.16;101577.06;4909280;28;122135;-79
2022/08/29 03:20:14;;;;;;;14.33;12.83;;;;;;;20.14;69.57;101587.50;4942044;28;123450;-79
2022/08/29 03:22:41;;;;;;;14.02;12.25;;;;;;;20.15;69.51;101589.03;4957907;28;120376;-79
2022/08/29 03:25:07;;;;;;;14.30;12.13;;;;;;;20.15;69.40;101582.72;4946309;28;123085;-79
2022/08/29 03:27:33;;;;;;;14.40;12.55;;;;;;;20.11;69.78;101577.38;4947756;28;121061;-79
2022/08/29 03:29:59;;;;;;;14.52;11.80;;;;;;;20.14;69.54;101578.41;4944967;28;120061;-79
2022/08/29 03:32:26;;;;;;;13.50;11.65;;;;;;;20.13;69.15;101576.88;4943953;28;120078;-79
2022/08/29 03:34:52;;;;;;;14.88;11.55;;;;;;;20.09;68.77;101579.84;4926994;28;121246;-79
2022/08/29 03:37:18;;;;;;;12.90;11.20;;;;;;;20.10;69.51;101586.94;4928493;28;120536;-79
2022/08/29 03:39:43;;;;;;;13.93;11.50;;;;;;;20.13;69.24;101594.34;4929477;28;123891;-80
2022/08/29 03:42:10;;;;;;;14.33;11.43;;;;;;;20.16;69.42;101593.34;4930635;28;120008;-79
2022/08/29 03:44:38;;;;;;;12.10;10.88;;;;;;;20.19;69.35;101591.59;4929964;28;122316;-80
2022/08/29 03:47:04;;;;;;;12.82;10.82;;;;;;;20.16;69.34;101582.22;4909060;28;123577;-79
2022/08/29 03:49:30;;;;;;;12.57;10.60;;;;;;;20.16;68.75;101582.22;4951342;28;120534;-79
2022/08/29 03:51:56;;;;;;;11.02;9.90;;;;;;;20.17;68.94;101588.53;4928330;28;124020;-79
2022/08/29 03:54:22;;;;;;;10.77;9.50;;;;;;;20.16;69.44;101587.78;4930527;28;120407;-79
2022/08/29 03:56:48;;;;;;;12.33;9.70;;;;;;;20.23;69.24;101606.06;4947308;28;121971;-79
2022/08/29 03:59:16;;;;;;;11.00;9.52;;;;;;;20.22;68.90;101602.50;4914430;28;123116;-79
2022/08/29 04:01:41;;;;;;;10.82;9.35;;;;;;;20.21;68.54;101597.44;4933824;28;121065;-80
2022/08/29 04:04:07;;;;;;;10.68;9.20;;;;;;;20.24;68.85;101607.56;4934638;28;122984;-79
2022/08/29 04:06:33;;;;;;;12.00;9.23;;;;;;;20.24;68.77;101608.34;4946208;28;121270;-79
2022/08/29 04:08:59;;;;;;;10.50;9.00;;;;;;;20.28;68.61;101601.78;4919074;28;120089;-79
2022/08/29 04:11:27;;;;;;;10.00;8.85;;;;;;;20.32;68.68;101608.63;4930717;28;122678;-79
2022/08/29 04:13:53;;;;;;;11.35;8.90;;;;;;;20.33;68.24;101609.41;4930764;28;119648;-79
2022/08/29 04:16:24;;;;;;;10.30;9.23;;;;;;;20.34;68.39;101610.94;4944982;28;120141;-79
2022/08/29 04:18:50;;;;;;;9.60;8.60;;;;;;;20.34;67.95;101619.28;4944082;28;121646;-79
2022/08/29 04:21:17;;;;;;;9.70;8.53;;;;;;;20.34;68.29;101622.06;4948451;28;119910;-79
2022/08/29 04:23:44;;;;;;;10.13;8.10;;;;;;;20.29;67.75;101631.91;4946079;28;120052;-79
2022/08/29 04:26:18;;;;;;;9.68;8.23;;;;;;;20.29;68.22;101631.91;4940647;28;123077;-79
2022/08/29 04:28:44;;;;;;;8.57;7.63;;;;;;;20.25;67.81;101631.38;4930993;28;120127;-79
2022/08/29 04:31:18;;;;;;;10.23;8.18;;;;;;;20.20;67.97;101641.25;4951088;28;120629;-79
2022/08/29 04:33:46;;;;;;;9.60;7.60;;;;;;;20.22;68.26;101638.72;4928904;28;121828;-79
2022/08/29 04:36:13;;;;;;;9.45;7.70;;;;;;;20.19;68.00;101636.16;4946658;28;120356;-79
2022/08/29 04:38:39;;;;;;;8.73;7.68;;;;;;;20.17;68.39;101639.44;4921648;28;121729;-79
2022/08/29 04:41:07;;;;;;;8.77;7.30;;;;;;;20.19;68.45;101633.38;4946395;28;120223;-79
2022/08/29 04:43:33;;;;;;;7.80;7.00;;;;;;;20.20;68.21;101632.13;4925134;28;122790;-79
2022/08/29 04:45:59;;;;;;;9.35;7.00;;;;;;;20.22;68.21;101638.72;4945378;28;121533;-79
2022/08/29 04:48:25;;;;;;;7.55;6.53;;;;;;;20.23;67.97;101639.47;4947105;28;119721;-79
2022/08/29 04:50:58;;;;;;;7.93;6.50;;;;;;;20.23;68.43;101631.88;4912428;28;122511;-79
2022/08/29 04:53:25;;;;;;;7.55;6.70;;;;;;;20.24;68.33;101633.41;4950710;28;120938;-79
2022/08/29 04:56:23;;;;;;;8.17;6.57;;;;;;;20.28;68.14;101638.00;4963406;28;121173;-79
2022/08/29 04:58:50;;;;;;;9.38;6.20;;;;;;;20.27;68.11;101633.69;4929563;28;122918;-79
2022/08/29 05:01:20;;;;;;;8.27;6.32;;;;;;;20.30;68.25;101633.44;4929942;28;120276;-79
2022/08/29 05:03:47;;;;;;;6.63;5.78;;;;;;;20.31;67.94;101639.78;4945255;28;120407;-79
2022/08/29 05:06:14;;;;;;;7.80;5.70;;;;;;;20.29;66.69;101636.72;4923699;28;122176;-79
2022/08/29 05:08:42;;;;;;;6.80;5.60;;;;;;;20.25;67.48;101631.38;4944874;28;120269;-78
2022/08/29 05:11:15;;;;;;;7.85;5.93;;;;;;;20.20;67.88;101632.88;4942603;28;120213;-79
2022/08/29 05:13:42;;;;;;;8.43;5.60;;;;;;;20.25;68.11;101631.38;4943747;28;120742;-79
2022/08/29 05:16:10;;;;;;;7.60;5.47;;;;;;;20.32;68.31;101639.28;4913956;28;120991;-78
2022/08/29 05:18:37;;;;;;;6.60;5.50;;;;;;;20.36;68.55;101642.63;4945105;28;120239;-78
2022/08/29 05:21:03;;;;;;;7.70;5.25;;;;;;;20.41;68.42;101643.97;4945409;28;120447;-79
2022/08/29 05:23:29;;;;;;;7.00;5.07;;;;;;;20.46;68.13;101654.38;4913425;28;122204;-79
2022/08/29 05:26:00;;;;;;;7.75;4.60;;;;;;;20.46;67.55;101651.59;4944064;28;122914;-78
2022/08/29 05:28:27;;;;;;;6.43;4.70;;;;;;;20.44;67.74;101645.75;4913365;28;120608;-78
2022/08/29 05:30:54;;;;;;;8.15;4.57;;;;;;;20.48;67.60;101649.81;4946105;28;122107;-78
2022/08/29 05:33:20;;;;;;;5.95;4.63;;;;;;;20.49;67.69;101651.34;4928522;28;122800;-78
2022/08/29 05:35:46;;;;;;;6.60;4.30;;;;;;;20.50;67.79;101657.69;4929026;28;120977;-79
2022/08/29 05:38:11;;;;;;;8.05;4.25;;;;;;;20.54;67.55;101653.41;4950836;28;120074;-79
2022/08/29 05:40:38;;;;;;;6.25;3.80;;;;;;;20.59;67.61;101660.31;4947142;28;120359;-79
2022/08/29 05:43:04;;;;;;;6.60;4.22;;;;;;;20.64;67.58;101667.94;4927112;28;120153;-79
2022/08/29 05:45:30;;;;;;;7.28;3.60;;;;;;;20.66;67.62;101670.97;4927247;28;123136;-78
2022/08/29 05:47:56;;;;;;;4.78;3.80;;;;;;;20.71;67.61;101681.41;4929001;28;120368;-79
2022/08/29 05:50:22;;;;;;;5.53;3.70;;;;;;;20.75;67.17;101690.28;4927172;28;123016;-79
2022/08/29 05:52:48;;;;;;;4.23;3.50;;;;;;;20.76;66.90;101691.06;4903996;28;123434;-79
2022/08/29 05:55:14;;;;;;;4.93;3.30;;;;;;;20.75;66.96;101687.50;4913826;28;120617;-78
2022/08/29 05:57:40;;;;;;;5.07;3.38;;;;;;;20.79;67.10;101690.06;4928865;28;122201;-79
2022/08/29 06:00:08;;;;;;;5.45;3.53;;;;;;;20.80;67.29;101695.13;4943859;28;122069;-78
2022/08/29 06:02:38;;;;;;;6.65;3.60;;;;;;;20.79;67.22;101698.44;4943212;28;120740;-78
2022/08/29 06:05:06;;;;;;;5.33;3.43;;;;;;;20.84;67.21;101697.72;4944344;28;122427;-79
2022/08/29 06:07:32;;;;;;;5.07;3.40;;;;;;;20.80;67.06;101681.19;4946311;28;120172;-79
2022/08/29 06:10:00;;;;;;;4.23;3.10;;;;;;;20.88;67.15;101686.31;4928248;28;120239;-79
2022/08/29 06:12:26;;;;;;;4.05;2.88;;;;;;;20.91;66.92;101690.91;4927147;28;123236;-79
2022/08/29 06:14:52;;;;;;;4.10;3.00;;;;;;;20.96;67.55;101690.16;4924653;28;120269;-79
2022/08/29 06:17:20;;;;;;;3.83;2.90;;;;;;;20.97;66.58;101689.66;4926656;28;121222;-79
2022/08/29 06:19:49;;;;;;;5.57;2.90;;;;;;;21.04;nan;101696.78;4930351;28;123059;-78
2022/08/29 06:22:15;;;;;;;4.68;2.80;;;;;;;21.02;65.54;101694.50;4928723;28;123038;-78
2022/08/29 06:24:41;;;;;;;5.60;3.00;;;;;;;21.03;66.59;101698.06;4939840;28;120459;-79
2022/08/29 06:27:06;;;;;;;3.20;2.80;;;;;;;21.02;66.61;101693.75;4944774;28;120199;-79
2022/08/29 06:29:32;;;;;;;4.20;2.77;;;;;;;21.08;66.46;101697.34;4947046;28;120190;-79
2022/08/29 06:31:59;;;;;;;5.67;2.87;;;;;;;21.08;66.10;101694.56;4941644;28;123231;-79
2022/08/29 06:34:25;;;;;;;3.80;2.53;;;;;;;21.15;66.72;101696.88;4945740;28;120858;-79
2022/08/29 06:36:50;;;;;;;4.30;2.77;;;;;;;21.16;66.07;101701.19;4945580;28;120145;-78
2022/08/29 06:39:17;;;;;;;4.93;2.70;;;;;;;21.18;67.10;101701.44;4944077;28;123339;-78
2022/08/29 06:41:43;;;;;;;4.20;2.50;;;;;;;21.22;66.11;101701.97;4945974;28;120656;-79
2022/08/29 06:44:17;;;;;;;4.33;2.60;;;;;;;21.27;66.03;101712.41;4943005;28;123200;-79
2022/08/29 06:46:48;;;;;;;3.83;2.43;;;;;;;21.30;65.84;101702.31;4943647;28;120997;-79
2022/08/29 06:49:16;;;;;;;3.88;2.55;;;;;;;21.34;65.69;101711.97;4942932;28;123384;-79
2022/08/29 06:51:48;;;;;;;4.38;2.40;;;;;;;21.39;65.57;101711.22;4906736;28;123695;-79
2022/08/29 06:54:14;;;;;;;5.60;2.80;;;;;;;21.42;65.55;101718.59;4937866;28;120413;-80
2022/08/29 06:56:40;;;;;;;5.55;2.97;;;;;;;21.44;65.97;101713.25;4938147;28;121097;-80
2022/08/29 06:59:06;;;;;;;5.32;2.90;;;;;;;21.50;64.81;101709.72;4921647;28;123758;-80
2022/08/29 07:01:33;;;;;;;6.80;2.80;;;;;;;21.52;65.59;101707.94;4939599;28;120882;-79
2022/08/29 07:03:59;;;;;;;3.60;2.10;;;;;;;21.50;64.54;101706.94;4945517;28;121217;-79
2022/08/29 07:06:27;;;;;;;5.25;2.40;;;;;;;21.51;64.97;101714.78;4924021;28;120703;-79
2022/08/29 07:08:52;;;;;;;2.85;1.92;;;;;;;21.51;64.33;101722.41;4924230;28;120365;-79
2022/08/29 07:11:21;;;;;;;2.63;2.00;;;;;;;21.55;64.61;101731.34;4908656;28;123315;-79
2022/08/29 07:13:47;;;;;;;3.88;2.10;;;;;;;21.58;63.92;101721.94;4941896;28;122474;-79
2022/08/29 07:16:15;;;;;;;4.30;2.10;;;;;;;21.64;64.19;101726.28;4927750;28;121197;-79
2022/08/29 07:18:42;;;;;;;2.87;1.87;;;;;;;21.70;64.49;101727.06;4912318;28;123506;-80
2022/08/29 07:21:11;;;;;;;3.75;1.98;;;;;;;21.80;64.22;101724.81;4945552;28;120855;-80
2022/08/29 07:23:37;;;;;;;4.00;2.05;;;;;;;21.83;64.19;101721.00;4925524;28;122239;-79
2022/08/29 07:26:10;;;;;;;3.63;2.00;;;;;;;21.89;62.38;101721.78;4930370;28;123691;-80
2022/08/29 07:28:36;;;;;;;2.92;1.80;;;;;;;21.88;62.49;101725.84;4931332;28;123753;-80
2022/08/29 07:31:03;;;;;;;4.10;1.92;;;;;;;21.89;62.45;101727.34;4944898;28;120533;-79
2022/08/29 07:33:30;;;;;;;4.38;2.00;;;;;;;21.92;62.15;101731.94;4946554;28;120152;-79
2022/08/29 07:35:56;;;;;;;3.20;1.80;;;;;;;21.89;61.69;101743.34;4945042;28;120522;-79
2022/08/29 07:38:21;;;;;;;3.90;1.90;;;;;;;21.89;61.97;101740.56;4929967;28;123942;-79
2022/08/29 07:40:47;;;;;;;2.63;1.90;;;;;;;21.92;62.63;101739.56;4927142;28;121128;-79
2022/08/29 07:43:13;;;;;;;3.07;1.90;;;;;;;21.97;61.11;101739.56;4913378;28;122786;-79
2022/08/29 07:45:39;;;;;;;3.63;2.00;;;;;;;21.94;61.47;101748.94;4946877;28;123857;-79
2022/08/29 07:48:05;;;;;;;3.72;1.90;;;;;;;22.01;62.45;101756.09;4935539;28;120558;-79
2022/08/29 07:50:30;;;;;;;4.22;1.92;;;;;;;22.00;62.13;101754.53;4910577;28;123349;-79
2022/08/29 07:52:56;;;;;;;3.45;1.90;;;;;;;22.02;61.22;101758.38;4910669;28;120712;-80
2022/08/29 07:55:23;;;;;;;4.30;1.90;;;;;;;22.04;61.53;101764.25;4943278;28;120210;-80
2022/08/29 07:57:52;;;;;;;3.35;1.83;;;;;;;22.05;60.27;101757.41;4925126;28;124041;-80
2022/08/29 08:00:19;;;;;;;4.28;2.17;;;;;;;22.07;61.46;101764.50;4909312;28;120693;-79
2022/08/29 08:02:45;;;;;;;4.03;1.90;;;;;;;22.08;60.65;101760.44;4942697;28;121323;-79
2022/08/29 08:05:10;;;;;;;3.07;1.80;;;;;;;22.15;60.04;101754.34;4942024;28;124801;-80
2022/08/29 08:07:36;;;;;;;4.23;2.13;;;;;;;22.24;61.40;101768.06;4920360;28;122623;-80
2022/08/29 08:10:02;;;;;;;2.53;1.80;;;;;;;22.35;60.75;101760.47;4926829;28;120742;-80
2022/08/29 08:12:28;;;;;;;3.08;1.90;;;;;;;22.36;59.81;101762.00;4904621;28;123266;-80
2022/08/29 08:14:55;;;;;;;3.27;1.87;;;;;;;22.46;59.32;101767.34;4904844;28;123273;-79
2022/08/29 08:17:22;;;;;;;4.40;2.20;;;;;;;22.45;59.91;101766.56;4920813;28;122355;-80
2022/08/29 08:19:48;;;;;;;3.60;2.08;;;;;;;22.43;59.88;101763.53;4921388;28;121074;-80
2022/08/29 08:22:14;;;;;;;4.63;2.10;;;;;;;22.46;58.58;101762.50;4921140;28;123468;-79
2022/08/29 08:24:39;;;;;;;4.00;2.00;;;;;;;22.45;57.74;101765.81;4919056;28;122083;-80
2022/08/29 08:27:05;;;;;;;4.95;2.17;;;;;;;22.46;58.49;101772.94;4905168;28;121688;-80
2022/08/29 08:29:31;;;;;;;5.03;2.30;;;;;;;22.40;57.91;101756.16;4924298;28;123856;-80
2022/08/29 08:31:58;;;;;;;3.83;1.90;;;;;;;22.43;58.05;101769.13;4922410;28;122370;-80
2022/08/29 08:34:27;;;;;;;4.90;2.10;;;;;;;22.48;57.48;101765.59;4906330;28;120858;-80
2022/08/29 08:36:53;;;;;;;3.67;2.08;;;;;;;22.50;57.78;101770.66;4919308;28;122515;-80
2022/08/29 08:39:19;;;;;;;4.32;2.00;;;;;;;22.52;57.41;101777.28;4923789;28;123137;-80
2022/08/29 08:41:56;;;;;;;4.38;1.80;;;;;;;22.57;57.97;101772.94;4922706;28;122262;-80
2022/08/29 08:44:21;;;;;;;4.50;1.90;;;;;;;22.62;57.41;101781.34;4920609;28;121812;-80
2022/08/29 08:46:52;;;;;;;4.50;2.00;;;;;;;22.62;56.82;101772.94;4919753;28;123406;-80
2022/08/29 08:49:35;;;;;;;3.25;2.00;;;;;;;22.64;58.05;101772.44;4915434;28;122206;-80
2022/08/29 08:52:08;;;;;;;4.25;1.95;;;;;;;22.73;56.88;101786.19;4941942;28;121712;-79
2022/08/29 08:54:51;;;;;;;4.30;2.10;;;;;;;22.71;56.03;101782.34;4937856;28;121783;-79
2022/08/29 08:57:20;;;;;;;4.00;1.92;;;;;;;22.70;55.69;101775.97;4954449;28;121791;-80
2022/08/29 08:59:54;;;;;;;3.80;1.90;;;;;;;22.73;55.50;101791.78;4922540;28;122458;-80
2022/08/29 09:02:28;;;;;;;5.28;1.73;;;;;;;22.71;55.32;101794.28;4925418;28;123179;-80
2022/08/29 09:05:32;;;;;;;6.53;2.00;;;;;;;22.67;54.67;101804.97;4939267;28;121147;-80
2022/08/29 09:08:04;;;;;;;3.08;1.88;;;;;;;22.69;54.97;101796.84;4936536;28;122124;-80
2022/08/29 09:10:54;;;;;;;3.17;1.60;;;;;;;22.84;53.41;101785.44;4937939;28;122318;-80
2022/08/29 09:14:08;;;;;;;4.82;1.67;;;;;;;23.02;54.58;101793.28;4905114;28;122689;-80
2022/08/29 09:16:40;;;;;;;5.03;1.80;;;;;;;23.08;52.61;101788.44;4929822;28;122882;-79
2022/08/29 09:19:09;;;;;;;3.07;1.73;;;;;;;23.02;53.44;101790.50;4939499;28;122062;-80
2022/08/29 09:21:44;;;;;;;3.42;1.60;;;;;;;22.98;53.25;101781.59;4908402;28;122256;-80
2022/08/29 09:24:41;;;;;;;3.33;1.60;;;;;;;23.09;53.05;101797.59;4921506;28;122758;-79
2022/08/29 09:27:16;;;;;;;3.60;1.50;;;;;;;23.22;52.68;101795.03;4909770;28;123247;-81
2022/08/29 09:29:42;;;;;;;3.88;1.58;;;;;;;23.36;52.13;101801.59;4940580;28;121838;-82
2022/08/29 09:32:12;;;;;;;3.92;1.45;;;;;;;23.47;51.64;101801.59;4926768;28;124531;-80
2022/08/29 09:34:43;;;;;;;3.58;1.65;;;;;;;23.53;51.88;101807.94;4926239;28;124042;-80
2022/08/29 09:37:35;;;;;;;3.90;1.50;;;;;;;23.63;50.77;101802.81;4922797;28;122171;-80
2022/08/29 09:40:12;;;;;;;4.17;1.70;;;;;;;23.68;51.38;101808.41;4908975;28;122909;-81
2022/08/29 09:42:45;;;;;;;4.57;1.67;;;;;;;23.64;50.20;101804.34;4944804;28;122800;-79
2022/08/29 09:45:17;;;;;;;5.85;1.75;;;;;;;23.53;51.58;101805.88;4933537;28;121989;-80
2022/08/29 09:47:44;;;;;;;3.57;1.40;;;;;;;23.47;51.99;101801.59;4930712;28;122525;-81
2022/08/29 09:50:23;;;;;;;2.70;1.48;;;;;;;23.49;52.25;101825.00;4923040;28;122494;-80
2022/08/29 09:52:52;;;;;;;4.90;1.63;;;;;;;23.45;50.83;101820.94;4938523;28;122699;-80
2022/08/29 09:55:18;;;;;;;2.78;1.60;;;;;;;23.49;52.00;101799.03;4928474;28;122243;-80
2022/08/29 09:58:06;;;;;;;3.40;1.60;;;;;;;23.55;50.43;101805.38;4892365;28;122900;-80
2022/08/29 10:00:59;;;;;;;3.53;1.60;;;;;;;23.54;50.71;101810.22;4909908;28;124616;-80
2022/08/29 10:03:28;;;;;;;2.90;1.45;;;;;;;23.61;50.17;101810.97;4932395;28;123908;-80
2022/08/29 10:06:15;;;;;;;5.87;1.60;;;;;;;23.56;49.48;101812.53;4938519;28;122653;-80
2022/08/29 10:08:55;;;;;;;3.33;1.50;;;;;;;23.49;50.20;101830.59;4929658;28;123697;-80
2022/08/29 10:11:27;;;;;;;2.75;1.42;;;;;;;23.47;50.03;101818.41;4913636;28;122515;-80
2022/08/29 10:13:56;;;;;;;3.88;1.60;;;;;;;23.52;49.80;101828.81;4919537;28;123476;-80
2022/08/29 10:16:37;;;;;;;4.00;1.55;;;;;;;23.57;50.98;101825.25;4905594;28;125530;-80
2022/08/29 10:19:12;;;;;;;2.90;1.50;;;;;;;23.58;50.34;101821.94;4907527;28;123653;-80
2022/08/29 10:21:52;;;;;;;4.15;1.60;;;;;;;23.62;50.40;101830.06;4923753;28;123153;-80
2022/08/29 10:24:23;;;;;;;2.80;1.57;;;;;;;23.56;50.83;101837.72;4906985;28;124044;-80
2022/08/29 10:27:27;;;;;;;3.60;1.40;;;;;;;23.50;49.83;101836.97;4907936;28;122390;-79
2022/08/29 10:30:05;;;;;;;2.88;1.40;;;;;;;23.52;50.19;101831.63;4949876;28;123256;-78
2022/08/29 10:32:49;;;;;;;4.05;1.48;;;;;;;23.52;50.07;101832.38;4904074;28;122336;-81
2022/08/29 10:35:33;;;;;;;5.47;1.75;;;;;;;23.59;49.95;101836.69;4921224;28;123567;-80
2022/08/29 10:38:02;;;;;;;6.23;1.80;;;;;;;23.68;49.83;101839.22;4938168;28;122676;-80
2022/08/29 10:40:37;;;;;;;4.43;1.45;;;;;;;23.66;48.49;101839.00;4936374;28;123025;-80
2022/08/29 10:43:18;;;;;;;3.42;1.40;;;;;;;23.60;49.55;101840.25;4937880;28;123363;-81
2022/08/29 10:45:53;;;;;;;3.83;1.40;;;;;;;23.62;49.28;101840.50;4950385;28;122447;-80
2022/08/29 10:48:28;;;;;;;5.55;1.40;;;;;;;23.65;48.51;101845.84;4928969;28;123576;-79
2022/08/29 10:51:03;;;;;;;4.20;1.33;;;;;;;23.64;49.54;101838.72;4941452;28;122375;-80
2022/08/29 10:53:40;;;;;;;3.83;1.70;;;;;;;23.64;48.93;101852.72;4925734;28;122251;-80
2022/08/29 10:56:18;;;;;;;2.75;1.35;;;;;;;23.61;49.43;101850.94;4943693;28;123062;-80
2022/08/29 10:59:01;;;;;;;3.70;1.30;;;;;;;23.64;49.32;101841.50;4943898;28;122349;-81
2022/08/29 11:01:35;;;;;;;2.78;1.30;;;;;;;23.75;48.89;101846.34;4942548;28;123006;-80
2022/08/29 11:04:22;;;;;;;3.77;1.57;;;;;;;23.87;49.11;101850.59;4944795;28;122386;-81
2022/08/29 11:07:26;;;;;;;4.28;1.42;;;;;;;23.98;48.09;101839.34;4926162;28;123720;-81
2022/08/29 11:09:56;;;;;;;2.40;1.40;;;;;;;23.96;47.71;101841.16;4907410;28;122578;-81
2022/08/29 11:12:46;;;;;;;2.88;1.50;;;;;;;23.93;47.89;101845.75;4947961;28;122776;-80
2022/08/29 11:15:33;;;;;;;5.07;1.60;;;;;;;23.79;47.70;101841.97;4943510;28;123814;-80
2022/08/29 11:18:22;;;;;;;4.18;1.30;;;;;;;23.73;47.11;101852.44;4925470;28;123294;-80
2022/08/29 11:20:52;;;;;;;3.00;1.40;;;;;;;23.69;47.54;101832.34;4926733;28;123258;-81
2022/08/29 11:23:43;;;;;;;4.73;1.33;;;;;;;23.76;48.29;101834.63;4910359;28;124311;-80
2022/08/29 11:26:21;;;;;;;3.25;1.40;;;;;;;23.85;48.33;101853.16;4961208;28;122893;-81